createdAt,value
2023-02-14T00:02:38.689Z,-81
2023-02-14T00:05:45.590Z,-80
2023-02-14T00:08:54.363Z,-80
2023-02-14T00:12:01.166Z,-80
2023-02-14T00:15:20.105Z,-80
2023-02-14T00:18:50.180Z,-81
2023-02-14T00:21:56.588Z,-80
2023-02-14T00:25:03.943Z,-80
2023-02-14T00:28:09.801Z,-80
2023-02-14T00:31:16.482Z,-81
2023-02-14T00:34:25.633Z,-80
2023-02-14T00:37:32.461Z,-80
2023-02-14T00:40:38.198Z,-80
2023-02-14T00:43:44.757Z,-81
2023-02-14T00:46:50.642Z,-81
2023-02-14T00:50:03.012Z,-80
2023-02-14T00:53:08.866Z,-80
2023-02-14T00:56:16.439Z,-81
2023-02-14T00:59:22.422Z,-80
2023-02-14T01:02:29.053Z,-80
2023-02-14T01:05:37.501Z,-80
2023-02-14T01:08:44.449Z,-80
2023-02-14T01:11:50.227Z,-80
2023-02-14T01:14:57.024Z,-80
2023-02-14T01:18:03.622Z,-80
2023-02-14T01:21:20.952Z,-81
2023-02-14T01:24:27.707Z,-81
2023-02-14T01:27:34.333Z,-80
2023-02-14T01:30:40.254Z,-81
2023-02-14T01:33:51.990Z,-81
2023-02-14T01:37:00.421Z,-80
2023-02-14T01:40:08.807Z,-80
2023-02-14T01:43:21.902Z,-80
2023-02-14T01:46:30.795Z,-81
2023-02-14T01:49:44.108Z,-80
2023-02-14T01:53:00.798Z,-84
2023-02-14T01:56:15.678Z,-81
2023-02-14T01:59:29.463Z,-81
2023-02-14T02:02:35.262Z,-80
2023-02-14T02:05:51.402Z,-81
2023-02-14T02:09:15.252Z,-82
2023-02-14T02:12:22.292Z,-81
2023-02-14T02:15:34.305Z,-84
2023-02-14T02:19:11.368Z,-80
2023-02-14T02:23:10.332Z,-80
2023-02-14T02:27:11.547Z,-81
2023-02-14T02:31:10.832Z,-85
2023-02-14T02:35:15.192Z,-81
2023-02-14T02:38:50.104Z,-82
2023-02-14T02:42:17.872Z,-82
2023-02-14T02:46:05.067Z,-80
2023-02-14T02:49:38.941Z,-81
2023-02-14T02:53:06.459Z,-85
2023-02-14T02:56:37.812Z,-80
2023-02-14T02:59:48.941Z,-80
2023-02-14T03:03:13.344Z,-80
2023-02-14T03:06:19.125Z,-79
2023-02-14T03:10:00.433Z,-80
2023-02-14T03:13:34.602Z,-80
2023-02-14T03:17:07.908Z,-84
2023-02-14T03:20:26.240Z,-80
2023-02-14T03:23:41.936Z,-80
2023-02-14T03:27:00.168Z,-81
2023-02-14T03:30:21.373Z,-80
2023-02-14T03:33:42.113Z,-80
2023-02-14T03:36:59.326Z,-81
2023-02-14T03:40:14.017Z,-80
2023-02-14T03:43:33.826Z,-80
2023-02-14T03:46:48.718Z,-79
2023-02-14T03:50:05.248Z,-83
2023-02-14T03:53:16.263Z,-80
2023-02-14T03:56:35.344Z,-81
2023-02-14T03:59:45.885Z,-80
2023-02-14T04:03:02.947Z,-80
2023-02-14T04:06:09.580Z,-80
2023-02-14T04:09:16.401Z,-80
2023-02-14T04:12:35.941Z,-80
2023-02-14T04:15:46.980Z,-81
2023-02-14T04:19:04.992Z,-80
2023-02-14T04:22:11.564Z,-80
2023-02-14T04:25:17.905Z,-80
2023-02-14T04:28:24.583Z,-81
2023-02-14T04:31:33.260Z,-80
2023-02-14T04:34:41.027Z,-81
2023-02-14T04:37:46.859Z,-84
2023-02-14T04:40:54.145Z,-81
2023-02-14T04:43:59.918Z,-81
2023-02-14T04:47:10.607Z,-85
2023-02-14T04:50:17.624Z,-80
2023-02-14T04:53:24.659Z,-80
2023-02-14T04:56:30.595Z,-79
2023-02-14T04:59:37.478Z,-80
2023-02-14T05:02:45.816Z,-80
2023-02-14T05:05:52.489Z,-81
2023-02-14T05:08:58.600Z,-81
2023-02-14T05:12:05.377Z,-80
2023-02-14T05:15:12.703Z,-83
2023-02-14T05:18:21.999Z,-81
2023-02-14T05:21:28.651Z,-80
2023-02-14T05:24:35.332Z,-80
2023-02-14T05:27:41.133Z,-80
2023-02-14T05:30:50.139Z,-81
2023-02-14T05:33:58.546Z,-80
2023-02-14T05:37:05.371Z,-81
2023-02-14T05:40:14.065Z,-81
2023-02-14T05:43:20.612Z,-81
2023-02-14T05:46:26.351Z,-80
2023-02-14T05:49:35.486Z,-80
2023-02-14T05:52:41.690Z,-80
2023-02-14T05:55:48.312Z,-80
2023-02-14T05:58:54.036Z,-79
2023-02-14T06:02:00.625Z,-80
2023-02-14T06:05:11.853Z,-80
2023-02-14T06:08:18.489Z,-79
2023-02-14T06:11:24.309Z,-80
2023-02-14T06:14:30.931Z,-80
2023-02-14T06:17:36.809Z,-80
2023-02-14T06:20:46.040Z,-80
2023-02-14T06:23:51.826Z,-82
2023-02-14T06:26:58.386Z,-79
2023-02-14T06:30:04.830Z,-80
2023-02-14T06:33:11.560Z,-80
2023-02-14T06:36:20.398Z,-79
2023-02-14T06:39:27.192Z,-80
2023-02-14T06:42:32.973Z,-79
2023-02-14T06:45:39.586Z,-80
2023-02-14T06:48:45.806Z,-80
2023-02-14T06:51:55.121Z,-82
2023-02-14T06:55:00.962Z,-80
2023-02-14T06:58:07.849Z,-85
2023-02-14T07:01:13.755Z,-80
2023-02-14T07:04:20.725Z,-80
2023-02-14T07:07:29.266Z,-80
2023-02-14T07:10:36.014Z,-80
2023-02-14T07:13:41.841Z,-81
2023-02-14T07:16:48.538Z,-81
2023-02-14T07:19:54.269Z,-80
2023-02-14T07:23:04.721Z,-81
2023-02-14T07:26:10.814Z,-81
2023-02-14T07:29:18.671Z,-80
2023-02-14T07:32:25.911Z,-81
2023-02-14T07:35:33.239Z,-80
2023-02-14T07:38:41.722Z,-80
2023-02-14T07:41:48.330Z,-80
2023-02-14T07:44:57.712Z,-81
2023-02-14T07:48:04.796Z,-81
2023-02-14T07:51:11.355Z,-81
2023-02-14T07:54:21.226Z,-84
2023-02-14T08:00:48.290Z,-83
2023-02-14T08:03:54.540Z,-81
2023-02-14T08:07:01.195Z,-81
2023-02-14T08:10:12.990Z,-81
2023-02-14T08:13:19.926Z,-81
2023-02-14T08:16:25.856Z,-81
2023-02-14T08:19:33.504Z,-81
2023-02-14T08:22:39.336Z,-79
2023-02-14T08:25:48.708Z,-79
2023-02-14T08:28:54.628Z,-84
2023-02-14T08:32:01.937Z,-80
2023-02-14T08:35:08.152Z,-80
2023-02-14T08:38:15.039Z,-80
2023-02-14T08:41:23.530Z,-80
2023-02-14T08:44:30.407Z,-80
2023-02-14T08:47:38.656Z,-79
2023-02-14T08:50:45.897Z,-79
2023-02-14T08:53:57.052Z,-79
2023-02-14T08:57:06.861Z,-79
2023-02-14T09:00:15.359Z,-79
2023-02-14T09:03:22.787Z,-79
2023-02-14T09:06:29.849Z,-79
2023-02-14T09:09:37.543Z,-79
2023-02-14T09:12:46.265Z,-79
2023-02-14T09:15:55.441Z,-80
2023-02-14T09:19:01.409Z,-80
2023-02-14T09:22:11.216Z,-81
2023-02-14T09:25:16.998Z,-80
2023-02-14T09:28:26.159Z,-79
2023-02-14T09:31:31.995Z,-79
2023-02-14T09:34:39.380Z,-79
2023-02-14T09:37:45.107Z,-78
2023-02-14T09:40:54.725Z,-79
2023-02-14T09:44:10.218Z,-79
2023-02-14T09:47:31.998Z,-80
2023-02-14T09:50:48.924Z,-79
2023-02-14T09:54:07.121Z,-80
2023-02-14T09:57:30.727Z,-79
2023-02-14T10:00:51.831Z,-79
2023-02-14T10:04:28.639Z,-79
2023-02-14T10:07:53.281Z,-79
2023-02-14T10:11:11.685Z,-79
2023-02-14T10:14:26.230Z,-79
2023-02-14T10:17:47.165Z,-79
2023-02-14T10:21:00.772Z,-80
2023-02-14T10:24:21.050Z,-81
2023-02-14T10:27:39.771Z,-82
2023-02-14T10:31:01.670Z,-80
2023-02-14T10:34:25.464Z,-81
2023-02-14T10:38:01.022Z,-80
2023-02-14T10:41:30.177Z,-80
2023-02-14T10:44:57.276Z,-80
2023-02-14T10:48:23.295Z,-80
2023-02-14T10:51:46.923Z,-80
2023-02-14T10:55:00.108Z,-81
2023-02-14T10:58:13.019Z,-80
2023-02-14T11:01:22.606Z,-80
2023-02-14T11:04:29.143Z,-80
2023-02-14T11:07:39.845Z,-80
2023-02-14T11:10:46.138Z,-80
2023-02-14T11:13:53.656Z,-80
2023-02-14T11:17:01.937Z,-80
2023-02-14T11:20:30.668Z,-81
2023-02-14T11:23:44.104Z,-80
2023-02-14T11:26:55.732Z,-82
2023-02-14T11:30:03.264Z,-81
2023-02-14T11:33:15.732Z,-82
2023-02-14T11:36:21.808Z,-83
2023-02-14T11:39:37.106Z,-83
2023-02-14T11:42:51.646Z,-81
2023-02-14T11:46:19.190Z,-80
2023-02-14T11:49:35.050Z,-80
2023-02-14T11:52:54.992Z,-80
2023-02-14T11:56:03.914Z,-81
2023-02-14T11:59:23.574Z,-81
2023-02-14T12:02:43.562Z,-80
2023-02-14T12:05:57.429Z,-80
2023-02-14T12:09:16.249Z,-80
2023-02-14T12:12:29.160Z,-81
2023-02-14T12:15:40.893Z,-80
2023-02-14T12:19:02.501Z,-80
2023-02-14T12:22:10.345Z,-81
2023-02-14T12:25:25.698Z,-81
2023-02-14T12:28:46.068Z,-81
2023-02-14T12:31:53.501Z,-81
2023-02-14T12:35:16.276Z,-81
2023-02-14T12:38:44.787Z,-81
2023-02-14T12:42:07.954Z,-81
2023-02-14T12:45:30.276Z,-82
2023-02-14T12:49:03.278Z,-81
2023-02-14T12:52:41.389Z,-81
2023-02-14T12:56:06.712Z,-81
2023-02-14T12:59:35.304Z,-81
2023-02-14T13:03:44.202Z,-81
2023-02-14T13:07:00.490Z,-82
2023-02-14T13:10:30.155Z,-82
2023-02-14T13:14:04.565Z,-81
2023-02-14T13:17:27.418Z,-82
2023-02-14T13:20:52.454Z,-83
2023-02-14T13:24:14.099Z,-82
2023-02-14T13:27:30.391Z,-81
2023-02-14T13:30:42.258Z,-83
2023-02-14T13:33:55.600Z,-81
2023-02-14T13:37:12.554Z,-81
2023-02-14T13:40:26.762Z,-83
2023-02-14T13:43:53.131Z,-81
2023-02-14T13:47:00.054Z,-81
2023-02-14T13:50:09.480Z,-82
2023-02-14T13:53:41.896Z,-81
2023-02-14T13:56:47.768Z,-84
2023-02-14T14:00:38.316Z,-81
2023-02-14T14:04:01.957Z,-82
2023-02-14T14:07:30.180Z,-81
2023-02-14T14:10:51.853Z,-81
2023-02-14T14:14:01.972Z,-81
2023-02-14T14:17:28.388Z,-81
2023-02-14T14:20:52.667Z,-81
2023-02-14T14:24:28.284Z,-81
2023-02-14T14:27:44.956Z,-82
2023-02-14T14:30:51.895Z,-81
2023-02-14T14:34:04.287Z,-81
2023-02-14T14:37:21.353Z,-82
2023-02-14T14:40:32.188Z,-81
2023-02-14T14:43:43.856Z,-82
2023-02-14T14:46:53.931Z,-81
2023-02-14T14:50:10.864Z,-80
2023-02-14T14:53:29.406Z,-80
2023-02-14T14:56:42.362Z,-79
2023-02-14T14:59:52.219Z,-80
2023-02-14T15:03:09.761Z,-81
2023-02-14T15:06:23.137Z,-80
2023-02-14T15:09:36.384Z,-80
2023-02-14T15:12:56.542Z,-82
2023-02-14T15:16:05.778Z,-81
2023-02-14T15:19:22.567Z,-80
2023-02-14T15:22:34.000Z,-80
2023-02-14T15:25:44.759Z,-80
2023-02-14T15:29:01.306Z,-81
2023-02-14T15:32:15.439Z,-80
2023-02-14T15:35:32.104Z,-81
2023-02-14T15:38:45.206Z,-80
2023-02-14T15:41:51.154Z,-79
2023-02-14T15:45:25.604Z,-79
2023-02-14T15:48:38.016Z,-81
2023-02-14T15:51:50.533Z,-83
2023-02-14T15:54:56.454Z,-82
2023-02-14T15:58:09.894Z,-82
2023-02-14T16:01:16.929Z,-82
2023-02-14T16:04:33.277Z,-82
2023-02-14T16:07:39.203Z,-82
2023-02-14T16:10:46.270Z,-82
2023-02-14T16:13:52.084Z,-82
2023-02-14T16:17:04.822Z,-81
2023-02-14T16:20:45.472Z,-81
2023-02-14T16:24:16.018Z,-83
2023-02-14T16:27:21.863Z,-83
2023-02-14T16:30:28.927Z,-81
2023-02-14T16:33:40.111Z,-81
2023-02-14T16:36:49.656Z,-82
2023-02-14T16:39:59.567Z,-85
2023-02-14T16:43:09.507Z,-81
2023-02-14T16:46:17.709Z,-81
2023-02-14T16:49:25.591Z,-81
2023-02-14T16:52:34.486Z,-81
2023-02-14T16:55:42.701Z,-81
2023-02-14T16:58:50.380Z,-81
2023-02-14T17:02:02.872Z,-81
2023-02-14T17:05:10.131Z,-81
2023-02-14T17:08:20.720Z,-81
2023-02-14T17:11:31.080Z,-81
2023-02-14T17:14:42.729Z,-82
2023-02-14T17:17:52.204Z,-83
2023-02-14T17:20:59.435Z,-83
2023-02-14T17:24:08.819Z,-86
2023-02-14T17:27:15.564Z,-87
2023-02-14T17:30:23.343Z,-85
2023-02-14T17:33:30.693Z,-86
2023-02-14T17:36:36.887Z,-83
2023-02-14T17:39:46.268Z,-82
2023-02-14T17:42:52.206Z,-85
2023-02-14T17:45:58.880Z,-80
2023-02-14T17:49:05.480Z,-82
2023-02-14T17:52:12.322Z,-86
2023-02-14T17:55:21.041Z,-81
2023-02-14T17:58:27.754Z,-86
2023-02-14T18:01:36.375Z,-82
2023-02-14T18:04:43.205Z,-82
2023-02-14T18:07:48.960Z,-85
2023-02-14T18:10:58.977Z,-83
2023-02-14T18:14:04.980Z,-83
2023-02-14T18:17:11.848Z,-86
2023-02-14T18:20:17.687Z,-86
2023-02-14T18:23:25.003Z,-82
2023-02-14T18:26:34.683Z,-82
2023-02-14T18:29:41.608Z,-85
2023-02-14T18:32:47.995Z,-85
2023-02-14T18:35:54.564Z,-82
2023-02-14T18:39:01.185Z,-82
2023-02-14T18:42:10.468Z,-84
2023-02-14T18:45:16.405Z,-85
2023-02-14T18:48:23.146Z,-82
2023-02-14T18:51:33.502Z,-84
2023-02-14T18:54:40.539Z,-83
2023-02-14T18:57:49.052Z,-83
2023-02-14T19:00:56.679Z,-83
2023-02-14T19:04:06.206Z,-82
2023-02-14T19:07:15.715Z,-82
2023-02-14T19:10:22.070Z,-81
2023-02-14T19:13:32.483Z,-81
2023-02-14T19:16:51.263Z,-82
2023-02-14T19:20:00.097Z,-81
2023-02-14T19:23:06.668Z,-81
2023-02-14T19:26:15.169Z,-86
2023-02-14T19:29:27.455Z,-81
2023-02-14T19:32:34.105Z,-80
2023-02-14T19:35:40.393Z,-80
2023-02-14T19:38:51.351Z,-80
2023-02-14T19:41:57.151Z,-80
2023-02-14T19:45:09.950Z,-80
2023-02-14T19:48:15.928Z,-80
2023-02-14T19:51:29.073Z,-80
2023-02-14T19:54:34.995Z,-80
2023-02-14T19:57:42.493Z,-79
2023-02-14T20:00:59.629Z,-80
2023-02-14T20:04:10.332Z,-79
2023-02-14T20:07:16.893Z,-80
2023-02-14T20:10:24.003Z,-81
2023-02-14T20:13:31.384Z,-81
2023-02-14T20:16:41.688Z,-80
2023-02-14T20:19:47.585Z,-80
2023-02-14T20:22:54.139Z,-80
2023-02-14T20:26:02.923Z,-80
2023-02-14T20:29:12.828Z,-79
2023-02-14T20:32:22.018Z,-80
2023-02-14T20:35:31.774Z,-80
2023-02-14T20:38:38.541Z,-80
2023-02-14T20:41:50.210Z,-79
2023-02-14T20:44:56.200Z,-79
2023-02-14T20:48:07.262Z,-80
2023-02-14T20:51:14.994Z,-80
2023-02-14T20:54:24.723Z,-79
2023-02-14T20:57:32.420Z,-79
2023-02-14T21:00:39.470Z,-79
2023-02-14T21:03:51.228Z,-79
2023-02-14T21:07:00.399Z,-79
2023-02-14T21:10:07.417Z,-79
2023-02-14T21:13:14.155Z,-79
2023-02-14T21:16:22.850Z,-77
2023-02-14T21:19:31.996Z,-77
2023-02-14T21:22:37.942Z,-78
2023-02-14T21:25:45.084Z,-78
2023-02-14T21:29:01.141Z,-80
2023-02-14T21:32:10.418Z,-79
2023-02-14T21:35:19.345Z,-81
2023-02-14T21:38:26.507Z,-79
2023-02-14T21:41:34.696Z,-80
2023-02-14T21:44:54.366Z,-79
2023-02-14T21:48:12.540Z,-79
2023-02-14T21:51:23.115Z,-79
2023-02-14T21:54:29.037Z,-79
2023-02-14T21:57:35.878Z,-80
2023-02-14T22:00:48.260Z,-80
2023-02-14T22:03:57.028Z,-80
2023-02-14T22:07:05.564Z,-79
2023-02-14T22:10:13.972Z,-80
2023-02-14T22:13:19.775Z,-80
2023-02-14T22:16:28.546Z,-79
2023-02-14T22:19:36.930Z,-79
2023-02-14T22:22:47.363Z,-80
2023-02-14T22:25:57.525Z,-80
2023-02-14T22:29:06.137Z,-80
2023-02-14T22:32:12.054Z,-80
2023-02-14T22:35:19.166Z,-81
2023-02-14T22:38:28.258Z,-85
2023-02-14T22:41:37.880Z,-84
2023-02-14T22:44:43.908Z,-82
2023-02-14T22:47:50.533Z,-86
2023-02-14T22:50:56.266Z,-87
2023-02-14T22:54:08.631Z,-86
2023-02-14T22:57:17.032Z,-82
2023-02-14T23:00:25.051Z,-84
2023-02-14T23:03:31.099Z,-86
2023-02-14T23:06:40.286Z,-83
2023-02-14T23:09:48.672Z,-81
2023-02-14T23:13:07.816Z,-82
2023-02-14T23:16:25.962Z,-86
2023-02-14T23:19:49.327Z,-87
2023-02-14T23:22:54.999Z,-87
2023-02-14T23:26:04.334Z,-86
2023-02-14T23:29:10.108Z,-83
2023-02-14T23:32:17.619Z,-85
2023-02-14T23:35:23.399Z,-85
2023-02-14T23:38:29.974Z,-85
2023-02-14T23:41:50.373Z,-83
2023-02-14T23:45:17.004Z,-86
2023-02-14T23:48:22.798Z,-82
2023-02-14T23:51:29.367Z,-83
2023-02-14T23:54:35.842Z,-83
2023-02-14T23:57:44.959Z,-83
